createdAt,value
2023-05-10T00:01:47.652Z,7.23
2023-05-10T00:04:14.513Z,7.20
2023-05-10T00:06:41.240Z,7.16
2023-05-10T00:09:07.934Z,7.19
2023-05-10T00:11:34.727Z,7.25
2023-05-10T00:14:01.370Z,7.21
2023-05-10T00:16:28.188Z,7.15
2023-05-10T00:18:54.882Z,7.28
2023-05-10T00:21:21.750Z,7.32
2023-05-10T00:23:48.524Z,7.34
2023-05-10T00:26:15.245Z,7.31
2023-05-10T00:28:41.896Z,7.33
2023-05-10T00:31:08.552Z,7.37
2023-05-10T00:33:35.250Z,7.32
2023-05-10T00:36:01.963Z,7.39
2023-05-10T00:38:28.752Z,7.25
2023-05-10T00:40:55.725Z,7.41
2023-05-10T00:43:22.333Z,7.46
2023-05-10T00:45:49.264Z,7.34
2023-05-10T00:48:16.009Z,7.32
2023-05-10T00:50:42.802Z,7.43
2023-05-10T00:53:09.952Z,7.31
2023-05-10T00:55:36.804Z,7.45
2023-05-10T00:58:03.517Z,7.48
2023-05-10T01:00:30.691Z,7.63
2023-05-10T01:02:57.502Z,7.56
2023-05-10T01:05:24.312Z,7.47
2023-05-10T01:07:51.057Z,7.64
2023-05-10T01:10:17.948Z,7.48
2023-05-10T01:12:46.766Z,7.42
2023-05-10T01:15:14.079Z,7.53
2023-05-10T01:17:42.078Z,7.36
2023-05-10T01:20:09.381Z,7.47
2023-05-10T01:23:00.577Z,7.51
2023-05-10T01:25:59.697Z,7.51
2023-05-10T01:28:54.006Z,7.42
2023-05-10T01:31:32.692Z,7.43
2023-05-10T01:34:11.121Z,7.36
2023-05-10T01:36:52.210Z,7.39
2023-05-10T01:39:23.743Z,7.46
2023-05-10T01:42:06.155Z,7.42
2023-05-10T01:44:38.708Z,7.44
2023-05-10T01:47:21.713Z,7.46
2023-05-10T01:49:53.638Z,7.37
2023-05-10T01:52:27.380Z,7.32
2023-05-10T01:55:02.645Z,7.22
2023-05-10T01:57:31.407Z,7.47
2023-05-10T01:59:59.780Z,7.35
2023-05-10T02:02:27.401Z,7.35
2023-05-10T02:04:54.694Z,7.38
2023-05-10T02:07:22.076Z,7.20
2023-05-10T02:09:49.248Z,7.25
2023-05-10T02:12:16.770Z,7.18
2023-05-10T02:14:44.117Z,7.20
2023-05-10T02:17:11.082Z,7.09
2023-05-10T02:19:39.764Z,7.02
2023-05-10T02:22:07.154Z,7.03
2023-05-10T02:24:35.091Z,7.02
2023-05-10T02:27:03.735Z,6.86
2023-05-10T02:29:31.254Z,6.97
2023-05-10T02:31:58.738Z,6.96
2023-05-10T02:34:27.928Z,6.85
2023-05-10T02:36:55.387Z,6.86
2023-05-10T02:39:22.492Z,6.84
2023-05-10T02:41:50.448Z,6.99
2023-05-10T02:44:21.150Z,6.86
2023-05-10T02:46:48.076Z,6.86
2023-05-10T02:49:15.126Z,7.02
2023-05-10T02:51:55.153Z,6.93
2023-05-10T02:54:28.689Z,7.05
2023-05-10T02:57:00.618Z,7.05
2023-05-10T02:59:27.715Z,6.99
2023-05-10T03:01:54.952Z,7.06
2023-05-10T03:04:21.839Z,7.08
2023-05-10T03:06:48.643Z,7.08
2023-05-10T03:09:16.771Z,7.04
2023-05-10T03:12:17.241Z,7.07
2023-05-10T03:14:53.417Z,6.96
2023-05-10T03:17:27.101Z,6.98
2023-05-10T03:19:56.612Z,7.06
2023-05-10T03:22:30.596Z,6.95
2023-05-10T03:25:01.452Z,7.08
2023-05-10T03:27:28.960Z,6.88
2023-05-10T03:29:56.660Z,7.11
2023-05-10T03:32:24.053Z,7.11
2023-05-10T03:34:50.774Z,7.16
2023-05-10T03:37:17.377Z,7.23
2023-05-10T03:39:43.992Z,7.08
2023-05-10T03:42:12.996Z,7.25
2023-05-10T03:44:42.852Z,7.25
2023-05-10T03:47:09.680Z,7.33
2023-05-10T03:49:38.908Z,7.45
2023-05-10T03:52:06.410Z,7.57
2023-05-10T03:54:33.552Z,7.60
2023-05-10T03:57:01.334Z,7.61
2023-05-10T03:59:28.214Z,7.60
2023-05-10T04:01:54.955Z,7.59
2023-05-10T04:04:22.553Z,7.66
2023-05-10T04:06:49.408Z,7.77
2023-05-10T04:09:16.341Z,7.83
2023-05-10T04:11:43.065Z,8.00
2023-05-10T04:14:09.983Z,8.16
2023-05-10T04:16:36.702Z,8.21
2023-05-10T04:19:03.583Z,8.30
2023-05-10T04:21:30.455Z,8.37
2023-05-10T04:23:57.303Z,8.59
2023-05-10T04:26:24.561Z,8.52
2023-05-10T04:28:51.392Z,8.43
2023-05-10T04:31:18.336Z,8.61
2023-05-10T04:33:45.085Z,9.67
2023-05-10T04:36:11.847Z,10.15
2023-05-10T04:38:38.523Z,11.10
2023-05-10T04:41:09.801Z,11.59
2023-05-10T04:43:37.316Z,11.56
2023-05-10T04:46:04.804Z,11.97
2023-05-10T04:48:31.720Z,12.23
2023-05-10T04:50:58.496Z,12.34
2023-05-10T04:53:25.237Z,11.83
2023-05-10T04:55:52.091Z,11.17
2023-05-10T04:58:18.943Z,10.02
2023-05-10T05:00:45.723Z,9.64
2023-05-10T05:03:12.523Z,10.59
2023-05-10T05:05:39.287Z,10.83
2023-05-10T05:08:06.423Z,11.01
2023-05-10T05:10:33.142Z,11.09
2023-05-10T05:12:59.823Z,10.92
2023-05-10T05:15:26.569Z,10.71
2023-05-10T05:17:53.326Z,10.53
2023-05-10T05:20:20.229Z,10.82
2023-05-10T05:22:50.598Z,11.42
2023-05-10T05:25:17.570Z,10.09
2023-05-10T05:27:44.557Z,11.02
2023-05-10T05:30:11.704Z,11.34
2023-05-10T05:32:38.480Z,10.52
2023-05-10T05:35:05.594Z,10.16
2023-05-10T05:37:32.452Z,10.06
2023-05-10T05:39:59.156Z,9.95
2023-05-10T05:42:25.830Z,9.94
2023-05-10T05:44:52.541Z,9.99
2023-05-10T05:47:19.152Z,9.88
2023-05-10T05:49:48.710Z,9.77
2023-05-10T05:52:15.531Z,9.88
2023-05-10T05:54:42.229Z,9.84
2023-05-10T05:57:08.980Z,10.03
2023-05-10T05:59:35.741Z,10.24
2023-05-10T06:02:02.494Z,10.12
2023-05-10T06:04:29.364Z,10.58
2023-05-10T06:06:56.220Z,10.51
2023-05-10T06:09:24.801Z,11.02
2023-05-10T06:11:51.496Z,10.12
2023-05-10T06:14:18.320Z,10.24
2023-05-10T06:16:45.014Z,10.18
2023-05-10T06:19:11.760Z,10.35
2023-05-10T06:21:38.488Z,10.37
2023-05-10T06:24:05.868Z,10.38
2023-05-10T06:26:32.977Z,10.48
2023-05-10T06:28:59.722Z,10.55
2023-05-10T06:31:26.409Z,10.56
2023-05-10T06:33:55.318Z,10.53
2023-05-10T06:36:24.499Z,10.49
2023-05-10T06:38:52.311Z,10.56
2023-05-10T06:41:18.918Z,10.97
2023-05-10T06:43:45.502Z,11.17
2023-05-10T06:46:12.372Z,10.69
2023-05-10T06:48:39.163Z,10.65
2023-05-10T06:51:05.844Z,11.15
2023-05-10T06:53:32.512Z,11.24
2023-05-10T06:55:59.158Z,11.17
2023-05-10T06:58:25.897Z,11.06
2023-05-10T07:00:52.759Z,10.56
2023-05-10T07:03:19.501Z,10.63
2023-05-10T07:05:46.133Z,10.80
2023-05-10T07:08:12.855Z,11.38
2023-05-10T07:10:39.593Z,10.82
2023-05-10T07:13:06.338Z,10.72
2023-05-10T07:15:33.161Z,11.06
2023-05-10T07:17:59.890Z,11.20
2023-05-10T07:20:26.634Z,11.32
2023-05-10T07:22:53.337Z,11.27
2023-05-10T07:25:20.021Z,11.76
2023-05-10T07:27:49.445Z,11.48
2023-05-10T07:30:16.375Z,11.42
2023-05-10T07:32:43.587Z,11.75
2023-05-10T07:35:10.264Z,11.93
2023-05-10T07:37:37.124Z,12.00
2023-05-10T07:40:04.006Z,11.66
2023-05-10T07:42:30.676Z,11.86
2023-05-10T07:44:57.359Z,12.11
2023-05-10T07:47:24.569Z,12.12
2023-05-10T07:49:51.412Z,12.33
2023-05-10T07:52:18.115Z,12.15
2023-05-10T07:54:45.662Z,12.12
2023-05-10T07:57:12.426Z,12.07
2023-05-10T07:59:39.089Z,11.97
2023-05-10T08:02:05.945Z,11.93
2023-05-10T08:04:32.679Z,11.97
2023-05-10T08:06:59.328Z,12.39
2023-05-10T08:09:26.028Z,12.56
2023-05-10T08:11:52.899Z,12.29
2023-05-10T08:14:19.644Z,11.94
2023-05-10T08:16:46.370Z,11.81
2023-05-10T08:19:13.045Z,11.71
2023-05-10T08:21:41.571Z,11.85
2023-05-10T08:24:08.592Z,11.76
2023-05-10T08:26:35.380Z,11.97
2023-05-10T08:29:02.124Z,12.03
2023-05-10T08:31:28.883Z,11.87
2023-05-10T08:33:55.557Z,12.02
2023-05-10T08:36:25.144Z,12.30
2023-05-10T08:38:53.146Z,12.06
2023-05-10T08:41:23.144Z,12.35
2023-05-10T08:43:50.875Z,12.31
2023-05-10T08:46:19.856Z,12.21
2023-05-10T08:48:47.663Z,12.14
2023-05-10T08:51:15.454Z,11.83
2023-05-10T08:53:42.117Z,11.98
2023-05-10T08:56:09.019Z,12.06
2023-05-10T08:58:35.686Z,12.01
2023-05-10T09:01:02.610Z,12.47
2023-05-10T09:03:29.595Z,12.71
2023-05-10T09:05:57.019Z,12.76
2023-05-10T09:08:27.144Z,13.16
2023-05-10T09:10:55.284Z,13.29
2023-05-10T09:13:23.409Z,13.04
2023-05-10T09:15:50.663Z,13.24
2023-05-10T09:18:17.458Z,13.48
2023-05-10T09:20:44.332Z,13.17
2023-05-10T09:23:11.092Z,13.15
2023-05-10T09:25:39.677Z,12.86
2023-05-10T09:28:12.270Z,12.98
2023-05-10T09:30:39.433Z,12.65
2023-05-10T09:33:09.008Z,12.46
2023-05-10T09:35:35.785Z,12.53
2023-05-10T09:38:04.945Z,12.36
2023-05-10T09:40:31.992Z,12.40
2023-05-10T09:43:00.471Z,12.52
2023-05-10T09:45:29.254Z,12.55
2023-05-10T09:47:56.890Z,12.86
2023-05-10T09:50:24.275Z,13.10
2023-05-10T09:53:01.022Z,13.33
2023-05-10T09:55:39.362Z,13.14
2023-05-10T09:58:10.509Z,13.18
2023-05-10T10:00:38.856Z,13.05
2023-05-10T10:03:07.943Z,13.01
2023-05-10T10:05:36.088Z,12.77
2023-05-10T10:08:06.692Z,12.45
2023-05-10T10:10:34.494Z,12.33
2023-05-10T10:13:01.413Z,12.41
2023-05-10T10:15:28.396Z,12.53
2023-05-10T10:17:55.359Z,12.66
2023-05-10T10:20:23.677Z,12.83
2023-05-10T10:22:50.594Z,12.84
2023-05-10T10:25:19.530Z,12.72
2023-05-10T10:27:53.539Z,12.82
2023-05-10T10:30:38.849Z,12.66
2023-05-10T10:33:27.397Z,12.94
2023-05-10T10:35:55.874Z,13.35
2023-05-10T10:38:23.221Z,13.42
2023-05-10T10:40:50.486Z,12.94
2023-05-10T10:43:28.270Z,13.39
2023-05-10T10:46:20.667Z,13.52
2023-05-10T10:49:09.926Z,14.10
2023-05-10T10:51:40.364Z,13.59
2023-05-10T10:54:11.645Z,13.42
2023-05-10T10:56:38.460Z,13.16
2023-05-10T10:59:05.308Z,12.99
2023-05-10T11:01:36.637Z,13.34
2023-05-10T11:04:06.705Z,13.17
2023-05-10T11:06:35.384Z,13.20
2023-05-10T11:09:13.455Z,12.74
2023-05-10T11:11:56.091Z,12.40
2023-05-10T11:14:26.340Z,12.43
2023-05-10T11:16:53.212Z,12.54
2023-05-10T11:19:20.355Z,12.51
2023-05-10T11:21:49.522Z,12.64
2023-05-10T11:24:23.014Z,13.09
2023-05-10T11:26:53.136Z,12.58
2023-05-10T11:29:20.243Z,12.99
2023-05-10T11:31:48.082Z,13.24
2023-05-10T11:34:28.967Z,13.66
2023-05-10T11:36:56.652Z,13.56
2023-05-10T11:39:31.271Z,13.38
2023-05-10T11:41:58.845Z,13.45
2023-05-10T11:44:31.269Z,14.07
2023-05-10T11:47:01.081Z,14.57
2023-05-10T11:49:27.885Z,14.69
2023-05-10T11:51:54.597Z,14.60
2023-05-10T11:54:21.274Z,15.14
2023-05-10T11:56:48.043Z,14.96
2023-05-10T11:59:15.865Z,14.36
2023-05-10T12:01:42.880Z,14.07
2023-05-10T12:04:09.874Z,13.89
2023-05-10T12:06:41.533Z,14.35
2023-05-10T12:09:09.279Z,14.37
2023-05-10T12:11:43.869Z,14.28
2023-05-10T12:14:11.862Z,14.47
2023-05-10T12:16:38.762Z,14.60
2023-05-10T12:19:06.613Z,14.38
2023-05-10T12:21:34.472Z,14.08
2023-05-10T12:24:03.607Z,14.47
2023-05-10T12:26:30.993Z,13.97
2023-05-10T12:29:21.590Z,14.46
2023-05-10T12:31:59.413Z,14.00
2023-05-10T12:34:26.413Z,14.46
2023-05-10T12:36:54.045Z,14.11
2023-05-10T12:39:20.837Z,14.05
2023-05-10T12:41:47.553Z,14.43
2023-05-10T12:44:14.134Z,14.56
2023-05-10T12:46:40.784Z,13.77
2023-05-10T12:49:09.360Z,13.68
2023-05-10T12:51:36.538Z,13.86
2023-05-10T12:54:04.198Z,13.81
2023-05-10T12:56:30.830Z,14.08
2023-05-10T12:58:57.414Z,14.15
2023-05-10T13:01:24.044Z,14.24
2023-05-10T13:03:50.675Z,14.02
2023-05-10T13:06:17.294Z,14.49
2023-05-10T13:08:43.985Z,14.47
2023-05-10T13:11:14.065Z,13.77
2023-05-10T13:13:40.718Z,13.88
2023-05-10T13:16:07.720Z,13.39
2023-05-10T13:18:34.334Z,13.17
2023-05-10T13:21:00.928Z,13.27
2023-05-10T13:23:27.545Z,12.88
2023-05-10T13:25:54.141Z,12.94
2023-05-10T13:28:20.959Z,12.88
2023-05-10T13:30:47.570Z,12.71
2023-05-10T13:33:14.262Z,12.89
2023-05-10T13:35:40.867Z,12.89
2023-05-10T13:38:08.980Z,12.94
2023-05-10T13:40:36.959Z,12.70
2023-05-10T13:43:03.537Z,12.79
2023-05-10T13:45:30.237Z,12.71
2023-05-10T13:47:56.810Z,12.62
2023-05-10T13:50:23.645Z,12.53
2023-05-10T13:52:50.354Z,12.45
2023-05-10T13:55:17.194Z,12.41
2023-05-10T13:57:44.267Z,12.55
2023-05-10T14:00:13.560Z,12.55
2023-05-10T14:02:40.235Z,12.19
2023-05-10T14:05:11.013Z,12.63
2023-05-10T14:07:37.910Z,12.56
2023-05-10T14:10:04.843Z,12.53
2023-05-10T14:12:33.787Z,12.53
2023-05-10T14:15:03.293Z,12.57
2023-05-10T14:17:29.895Z,12.67
2023-05-10T14:19:56.471Z,12.64
2023-05-10T14:22:23.757Z,12.83
2023-05-10T14:24:50.367Z,13.10
2023-05-10T14:27:19.521Z,12.97
2023-05-10T14:29:47.590Z,13.32
2023-05-10T14:32:14.343Z,13.46
2023-05-10T14:34:40.953Z,13.68
2023-05-10T14:37:07.747Z,14.11
2023-05-10T14:39:34.557Z,14.21
2023-05-10T14:42:01.179Z,14.03
2023-05-10T14:44:27.887Z,13.94
2023-05-10T14:46:54.523Z,13.55
2023-05-10T14:49:23.734Z,13.37
2023-05-10T14:51:50.583Z,13.34
2023-05-10T14:54:17.183Z,13.29
2023-05-10T14:56:43.961Z,13.15
2023-05-10T14:59:10.738Z,13.42
2023-05-10T15:01:38.909Z,13.52
2023-05-10T15:04:06.042Z,13.59
2023-05-10T15:06:33.779Z,13.50
2023-05-10T15:09:00.997Z,13.97
2023-05-10T15:11:28.067Z,14.15
2023-05-10T15:13:54.784Z,13.94
2023-05-10T15:16:21.535Z,14.48
2023-05-10T15:18:49.424Z,15.28
2023-05-10T15:21:16.095Z,15.91
2023-05-10T15:23:42.743Z,16.45
2023-05-10T15:26:09.306Z,16.46
2023-05-10T15:28:35.867Z,16.15
2023-05-10T15:31:02.606Z,15.70
2023-05-10T15:33:29.710Z,15.64
2023-05-10T15:35:56.730Z,16.30
2023-05-10T15:38:23.588Z,16.29
2023-05-10T15:40:50.323Z,15.25
2023-05-10T15:43:17.232Z,15.01
2023-05-10T15:45:43.858Z,15.26
2023-05-10T15:48:10.510Z,15.47
2023-05-10T15:50:37.276Z,15.81
2023-05-10T15:53:04.035Z,16.62
2023-05-10T15:55:30.710Z,15.80
2023-05-10T15:57:57.465Z,16.22
2023-05-10T16:00:24.238Z,16.50
2023-05-10T16:02:54.207Z,16.67
2023-05-10T16:05:21.507Z,17.00
2023-05-10T16:07:49.247Z,16.56
2023-05-10T16:10:16.376Z,16.63
2023-05-10T16:12:43.142Z,15.74
2023-05-10T16:15:10.281Z,15.90
2023-05-10T16:17:37.549Z,15.72
2023-05-10T16:20:04.874Z,16.20
2023-05-10T16:22:31.551Z,15.81
2023-05-10T16:24:59.051Z,15.72
2023-05-10T16:27:28.706Z,16.12
2023-05-10T16:29:55.450Z,16.17
2023-05-10T16:32:22.297Z,15.25
2023-05-10T16:34:50.278Z,14.66
2023-05-10T16:37:17.547Z,14.92
2023-05-10T16:39:44.363Z,15.34
2023-05-10T16:42:11.183Z,15.53
2023-05-10T16:44:37.869Z,15.89
2023-05-10T16:47:04.634Z,15.40
2023-05-10T16:49:31.598Z,14.49
2023-05-10T16:51:58.249Z,13.38
2023-05-10T16:54:24.857Z,13.05
2023-05-10T16:56:51.474Z,12.55
2023-05-10T16:59:18.169Z,12.32
2023-05-10T17:01:45.904Z,12.32
2023-05-10T17:04:14.316Z,12.11
2023-05-10T17:06:41.499Z,12.20
2023-05-10T17:09:08.156Z,12.08
2023-05-10T17:11:34.748Z,11.94
2023-05-10T17:14:01.915Z,11.83
2023-05-10T17:16:29.935Z,11.88
2023-05-10T17:18:56.971Z,11.79
2023-05-10T17:21:23.680Z,11.62
2023-05-10T17:23:50.419Z,11.48
2023-05-10T17:26:17.483Z,11.43
2023-05-10T17:28:44.168Z,11.42
2023-05-10T17:31:10.786Z,11.08
2023-05-10T17:33:40.959Z,11.16
2023-05-10T17:36:08.055Z,11.08
2023-05-10T17:38:34.765Z,10.99
2023-05-10T17:41:01.499Z,10.99
2023-05-10T17:43:28.119Z,10.93
2023-05-10T17:45:54.796Z,10.92
2023-05-10T17:48:22.071Z,10.84
2023-05-10T17:50:50.646Z,10.79
2023-05-10T17:53:17.391Z,10.75
2023-05-10T17:55:44.074Z,10.78
2023-05-10T17:58:12.203Z,10.93
2023-05-10T18:00:39.092Z,11.00
2023-05-10T18:03:15.256Z,10.89
2023-05-10T18:05:41.957Z,10.85
2023-05-10T18:08:08.754Z,10.75
2023-05-10T18:10:37.700Z,10.66
2023-05-10T18:13:07.430Z,10.49
2023-05-10T18:15:35.503Z,10.54
2023-05-10T18:18:03.596Z,10.40
2023-05-10T18:20:31.727Z,10.36
2023-05-10T18:22:58.742Z,10.38
2023-05-10T18:25:25.801Z,10.47
2023-05-10T18:27:52.603Z,10.48
2023-05-10T18:30:19.624Z,10.41
2023-05-10T18:32:46.349Z,10.20
2023-05-10T18:35:23.267Z,10.10
2023-05-10T18:37:50.058Z,10.14
2023-05-10T18:40:17.842Z,10.14
2023-05-10T18:42:46.661Z,10.12
2023-05-10T18:45:13.637Z,10.13
2023-05-10T18:47:40.397Z,10.07
2023-05-10T18:50:07.848Z,10.12
2023-05-10T18:52:36.005Z,10.18
2023-05-10T18:55:03.663Z,10.26
2023-05-10T18:57:30.600Z,10.14
2023-05-10T18:59:57.260Z,10.14
2023-05-10T19:02:25.376Z,10.05
2023-05-10T19:04:52.334Z,10.08
2023-05-10T19:07:19.034Z,10.00
2023-05-10T19:09:45.853Z,9.90
2023-05-10T19:12:12.759Z,9.77
2023-05-10T19:14:39.440Z,9.84
2023-05-10T19:17:07.989Z,9.78
2023-05-10T19:19:36.141Z,9.81
2023-05-10T19:22:02.942Z,9.91
2023-05-10T19:24:29.616Z,10.10
2023-05-10T19:26:58.046Z,10.07
2023-05-10T19:29:25.788Z,10.01
2023-05-10T19:31:53.186Z,9.70
2023-05-10T19:34:20.431Z,9.88
2023-05-10T19:36:47.237Z,9.78
2023-05-10T19:39:14.091Z,9.87
2023-05-10T19:41:41.006Z,9.78
2023-05-10T19:44:07.982Z,9.80
2023-05-10T19:46:37.312Z,9.74
2023-05-10T19:49:04.055Z,9.62
2023-05-10T19:51:31.062Z,9.75
2023-05-10T19:53:58.293Z,9.74
2023-05-10T19:56:26.909Z,9.75
2023-05-10T19:58:53.616Z,9.70
2023-05-10T20:01:20.401Z,9.67
2023-05-10T20:03:47.117Z,9.57
2023-05-10T20:06:14.168Z,9.48
2023-05-10T20:08:40.806Z,9.38
2023-05-10T20:11:07.436Z,9.18
2023-05-10T20:13:34.073Z,9.18
2023-05-10T20:16:00.802Z,9.05
2023-05-10T20:18:27.644Z,8.95
2023-05-10T20:20:55.534Z,9.03
2023-05-10T20:23:22.719Z,8.83
2023-05-10T20:25:49.567Z,8.78
2023-05-10T20:28:20.797Z,8.76
2023-05-10T20:30:47.539Z,8.74
2023-05-10T20:33:15.765Z,8.91
2023-05-10T20:35:42.562Z,9.11
2023-05-10T20:38:09.244Z,9.24
2023-05-10T20:40:36.716Z,9.25
2023-05-10T20:43:05.358Z,9.26
2023-05-10T20:45:32.702Z,9.23
2023-05-10T20:47:59.459Z,9.05
2023-05-10T20:50:26.247Z,9.04
2023-05-10T20:52:53.033Z,9.01
2023-05-10T20:55:20.767Z,9.06
2023-05-10T20:57:47.602Z,9.04
2023-05-10T21:00:15.220Z,8.99
2023-05-10T21:02:44.521Z,9.09
2023-05-10T21:05:11.684Z,9.03
2023-05-10T21:07:39.500Z,8.92
2023-05-10T21:10:08.313Z,8.83
2023-05-10T21:12:35.058Z,8.70
2023-05-10T21:15:01.772Z,8.63
2023-05-10T21:17:28.497Z,8.86
2023-05-10T21:19:55.275Z,8.97
2023-05-10T21:22:21.967Z,9.00
2023-05-10T21:24:48.700Z,9.04
2023-05-10T21:27:15.413Z,8.94
2023-05-10T21:29:42.125Z,9.14
2023-05-10T21:32:09.688Z,8.99
2023-05-10T21:34:36.626Z,9.13
2023-05-10T21:37:03.423Z,9.10
2023-05-10T21:39:30.813Z,9.18
2023-05-10T21:42:00.047Z,9.13
2023-05-10T21:44:28.257Z,9.25
2023-05-10T21:46:56.457Z,9.15
2023-05-10T21:49:31.578Z,9.13
2023-05-10T21:52:00.757Z,9.06
2023-05-10T21:54:34.063Z,8.94
2023-05-10T21:57:00.967Z,9.11
2023-05-10T21:59:27.620Z,9.22
2023-05-10T22:01:54.502Z,9.19
2023-05-10T22:04:21.138Z,9.16
2023-05-10T22:06:49.126Z,9.11
2023-05-10T22:09:15.841Z,8.97
2023-05-10T22:11:42.619Z,8.85
2023-05-10T22:14:09.371Z,8.77
2023-05-10T22:16:36.168Z,8.70
2023-05-10T22:19:02.995Z,8.47
2023-05-10T22:21:29.932Z,8.45
2023-05-10T22:23:56.712Z,8.10
2023-05-10T22:26:23.418Z,8.03
2023-05-10T22:28:50.590Z,7.91
2023-05-10T22:31:17.475Z,7.71
2023-05-10T22:33:44.736Z,7.55
2023-05-10T22:36:11.789Z,7.61
2023-05-10T22:38:38.558Z,7.46
2023-05-10T22:41:05.310Z,7.56
2023-05-10T22:43:32.097Z,7.57
2023-05-10T22:45:58.827Z,7.69
2023-05-10T22:48:25.431Z,7.87
2023-05-10T22:50:52.094Z,7.63
2023-05-10T22:53:18.686Z,7.70
2023-05-10T22:55:47.146Z,7.72
2023-05-10T22:58:13.857Z,7.74
2023-05-10T23:00:41.179Z,7.76
2023-05-10T23:03:07.977Z,7.76
2023-05-10T23:05:34.744Z,7.79
2023-05-10T23:08:01.618Z,7.87
2023-05-10T23:10:28.326Z,7.90
2023-05-10T23:12:56.117Z,8.00
2023-05-10T23:15:22.994Z,8.01
2023-05-10T23:17:49.797Z,7.98
2023-05-10T23:20:17.110Z,7.79
2023-05-10T23:22:43.947Z,7.97
2023-05-10T23:25:10.928Z,7.97
2023-05-10T23:27:37.703Z,8.00
2023-05-10T23:30:04.732Z,7.89
2023-05-10T23:32:31.400Z,8.07
2023-05-10T23:34:58.080Z,7.95
2023-05-10T23:37:25.437Z,7.65
2023-05-10T23:39:55.338Z,7.55
2023-05-10T23:42:22.031Z,7.64
2023-05-10T23:44:48.668Z,7.70
2023-05-10T23:47:15.710Z,7.60
2023-05-10T23:49:42.564Z,7.65
2023-05-10T23:52:09.426Z,7.67
2023-05-10T23:54:36.076Z,7.62
2023-05-10T23:57:03.377Z,7.69
2023-05-10T23:59:30.380Z,7.64
